AirNav   Everest Fuels
 
 1092 users online  

PA79 Tinicum Farms Heliport
Erwinna, Pennsylvania, USA

GOING TO ERWINNA?


FAA INFORMATION EFFECTIVE 18 JUNE 2020

Location

FAA Identifier: PA79
Lat/Long: 40-31-45.3680N 075-05-58.6190W
40-31.756133N 075-05.976983W
40.5292689,-75.0996164
(estimated)
Elevation: 280 ft. / 85 m (estimated)
Variation: 12W (1985)
From city: 1 mile NW of ERWINNA, PA
Time zone: UTC -4 (UTC -5 during Standard Time)
Zip code: 18972

Heliport Operations

Heliport use: Private use. Permission required prior to landing
Activation date: 03/1976
Control tower: no
ARTCC: NEW YORK CENTER
FSS: WILLIAMSPORT FLIGHT SERVICE STATION
Attendance: UNATNDD
Wind indicator: no
Segmented circle: no

Heliport Communications

WX AWOS-3 at N40 (6 nm E): 121.725
WX ASOS at DYL (12 nm S): 118.875 (215-345-0392)
WX AWOS-3 at CKZ (12 nm SW): 126.325 (215-257-7291)
WX AWOS-3 at UKT (14 nm SW): 119.475 (215-538-7610)
WX ASOS at ABE (17 nm NW): 126.975 (610-266-3579)
WX AWOS-3 at XLL (18 nm W): 127.875 (610-231-3111)

Nearby radio navigation aids

VOR radial/distance  VOR name  Freq  Var
SBJr269/16.6SOLBERG VOR/DME112.9010W
ARDr342/18.7YARDLEY VOR/DME108.2010W
FJCr136/20.0ALLENTOWN VORTAC117.5010W
BWZr229/20.5BROADWAY VOR/DME114.2011W
ETXr106/26.8EAST TEXAS VOR/DME110.2009W
PTWr058/28.0POTTSTOWN VORTAC116.5009W
STWr212/29.9STILLWATER VOR/DME109.6011W
RBVr315/33.9ROBBINSVILLE VORTAC113.8010W
GXUr336/38.8MC GUIRE VORTAC110.6012W

 
NDB name  Hdg/Dist  Freq  Var  ID
AMBLER031/25.627512WING .. -. --.
CHATHAM260/33.025413WCAT -.-. .- -

Heliport Services

Runway Information

Helipad H1

Dimensions: 525 x 285 ft. / 160 x 87 m
Surface: turf, in fair condition
Latitude: 40-31.756133N
Longitude: 075-05.976983W
Elevation: 280.0 ft.
Traffic pattern: leftleft
Markings: none, in fair condition

Heliport Ownership and Management from official FAA records

Ownership: Privately-owned
Owner: JANET L. K. RUTTENBERG
75 UPPER TINICUM CHURCH RD
ERWINNA, PA 18920
Phone 610-294-9270
Manager: TARY LEONARD
TINICUM FARMS, 75 UPPER TINICUM CHURCH RD
ERWINNA, PA 18920
Phone 267-328-7222
CELL# 267-328-7222

Additional Remarks

A52-H1 20' PLINE 320' EAST OF PAD RUNNING N/S.
FOR CD CTC ALLENTOWN APCH AT 800-728-6322.

Instrument Procedures

There are no published instrument procedures at PA79.

Some nearby airports with instrument procedures:

N85 - Alexandria Airport (5 nm NE)
N40 - Sky Manor Airport (6 nm E)
KDYL - Doylestown Airport (12 nm S)
KCKZ - Pennridge Airport (12 nm SW)
KUKT - Quakertown Airport (14 nm SW)
N43 - Braden Airpark (14 nm NW)
N51 - Solberg-Hunterdon Airport (17 nm E)
KABE - Lehigh Valley International Airport (17 nm NW)
KXLL - Allentown Queen City Municipal Airport (18 nm W)
 
Loc | Ops | Rwys | IFR | FBO | Links
Com | Nav | Svcs | Stats | Notes
Area around PA79 (Tinicum Farms Heliport)
 
Road maps at: MapQuest Bing Google
 
Aerial photo
No photo
 
Sectional chart

 
Airport distance calculator
Flying to Tinicum Farms Heliport? Find the distance to fly.

From to PA79

Sunrise and sunset
Times for 06-Jul-2020
 Local
(UTC-4)
 Zulu
(UTC)
Morning civil twilight05:0509:05
Sunrise05:3809:38
Sunset20:3300:33
Evening civil twilight21:0501:05

Current date and time
Zulu (UTC)  06-Jul-2020 22:43:49
Local (UTC-4)  06-Jul-2020 18:43:49
 
METAR
KDYL 
12nm S 
062210Z AUTO 00000KT 10SM FEW095 SCT120 22/19 A3006 RMK AO2 LTG DSNT SW AND W T02170189
KCKZ 
12nm SW 
062215Z AUTO 22003KT 6SM VCTS -RA FEW036 BKN044 BKN055 21/21 A3008 RMK AO2 LTG DSNT ALQDS P0001
KUKT 
14nm SW 
062220Z AUTO 14005KT 9SM FEW030 BKN048 SCT060 23/20 A3006 RMK A01
KABE 
18nm NW 
062221Z VRB05KT 10SM -TSRA FEW100 BKN120 22/19 A3003 RMK AO2 LTG DSNT SW AND W TSE00B15 P0000 T02220189
KXLL 
18nm W 
062215Z AUTO 16010G14KT 10SM -TSRA SCT023 SCT036 BKN055 22/20 A3003 RMK AO2 LTG DSNT ALQS
KTTN 
20nm SE 
ASOS 133.70 609-538-8690
062153Z 14005KT 10SM CLR 24/18 A3004 RMK AO2 LTG DSNT S AND NW SLP166 T02390178
KSMQ 
20nm E 
ASOS 120.60 908-722-2139
062153Z AUTO 00000KT 10SM FEW085 24/19 A3003 RMK AO2 LTG DSNT SW RAE18 SLP169 P0001 T02390194
TAF
KABE 
18nm NW 
061933Z 0620/0718 15012G22KT P6SM VCTS SCT040CB BKN090 TEMPO 0620/0623 2SM +TSRA BKN025CB FM070100 VRB03KT P6SM BKN050 BKN250 FM070700 VRB02KT P6SM OVC015
KTTN 
20nm SE 
062046Z 0621/0718 12012KT 6SM -SHRA SCT025 BKN100 TEMPO 0621/0623 4SM SHRA BKN025 OVC040 FM062300 13006KT P6SM BKN040 BKN150 FM070200 VRB03KT P6SM SCT080 FM070700 VRB02KT 4SM BR SCT012 FM071300 18005KT P6SM SCT200
NOTAMs
Click for the latest NOTAMs
NOTAMs are issued by the DoD/FAA and will open in a separate window not controlled by AirNav.

 

 
 

Would you like to see your business listed on this page?

 If your business provides an interesting product or service to pilots, flight crews, aircraft, or users of the Tinicum Farms Heliport, you should consider listing it here.  To start the listing process, click on the button below
 
Add a business
 

Other Pages about Tinicum Farms Heliport

Update a link
 
Copyright © AirNav, LLC. All rights reserved. Privacy Policy  Contact